Huvudsida
METAR-TAF:

METAR-TAF

Flygplatser :

Mesquite, Texas, USA

latitud: 32-44-49N, longitud: 096-31-49W, höjd: 136 m

Aktuellt väderrapport

Denna rapport gjordes för 25 minuter sedan, klockan 23:50 UTC
Vind 12 kt från sydost
Temperatur 29°C
Fuktighet 55%
Tryck 1015 hPa
Sikt: 16.1 km
Få moln på en höjd av 5000 ft

METAR: KHQZ 262350Z 13012KT 10SM FEW050 29/19 A2998

Tid: 19:15 (00:15 UTC)


TAF: saknas

Aktuella väderrapporter och prognoser från 4000 flygplatser (METAR- och TAF-rapporter).

De tillgängliga stationerna syns som gula och röda prickar på kartan.

För musen över prickarna för att se namnen på stationerna.

Klicka sedan för att få väderrapporter och prognoser.

För att ändra kartan: Klicka på de gröna knapparna med ett svart kors på för att zooma in; den gröna knappen med ett streck på för att zooma ut; eller på de gröna pilarna för angränsande kartor.


METAR-TAF: